sensor_id;sensor_type;location;lat;lon;timestamp;P1;durP1;ratioP1;P2;durP2;ratioP2
13731;SDS011;6937;56.096;12.664;2022-10-30T00:00:47;8.88;;;3.97;;
13731;SDS011;6937;56.096;12.664;2022-10-30T00:03:13;9.88;;;4.30;;
13731;SDS011;6937;56.096;12.664;2022-10-30T00:05:40;7.70;;;4.50;;
13731;SDS011;6937;56.096;12.664;2022-10-30T00:08:10;10.57;;;4.57;;
13731;SDS011;6937;56.096;12.664;2022-10-30T00:10:36;10.57;;;5.22;;
13731;SDS011;6937;56.096;12.664;2022-10-30T00:13:02;7.85;;;3.95;;
13731;SDS011;6937;56.096;12.664;2022-10-30T00:15:28;10.88;;;4.70;;
13731;SDS011;6937;56.096;12.664;2022-10-30T00:17:53;8.45;;;4.50;;
13731;SDS011;6937;56.096;12.664;2022-10-30T00:20:19;9.30;;;4.53;;
13731;SDS011;6937;56.096;12.664;2022-10-30T00:22:44;10.05;;;4.78;;
13731;SDS011;6937;56.096;12.664;2022-10-30T00:25:09;10.18;;;4.95;;
13731;SDS011;6937;56.096;12.664;2022-10-30T00:27:35;8.85;;;5.00;;
13731;SDS011;6937;56.096;12.664;2022-10-30T00:30:00;9.90;;;4.88;;
13731;SDS011;6937;56.096;12.664;2022-10-30T00:32:26;7.95;;;4.70;;
13731;SDS011;6937;56.096;12.664;2022-10-30T00:34:52;11.15;;;5.40;;
13731;SDS011;6937;56.096;12.664;2022-10-30T00:37:17;11.52;;;5.40;;
13731;SDS011;6937;56.096;12.664;2022-10-30T00:39:42;11.85;;;5.25;;
13731;SDS011;6937;56.096;12.664;2022-10-30T00:42:10;9.55;;;5.22;;
13731;SDS011;6937;56.096;12.664;2022-10-30T00:44:44;11.27;;;5.25;;
13731;SDS011;6937;56.096;12.664;2022-10-30T00:47:22;9.30;;;3.80;;
13731;SDS011;6937;56.096;12.664;2022-10-30T00:52:23;8.48;;;5.43;;
13731;SDS011;6937;56.096;12.664;2022-10-30T00:54:51;9.30;;;5.40;;
13731;SDS011;6937;56.096;12.664;2022-10-30T00:57:18;13.63;;;6.35;;
13731;SDS011;6937;56.096;12.664;2022-10-30T00:59:44;10.43;;;4.95;;
13731;SDS011;6937;56.096;12.664;2022-10-30T01:02:10;9.43;;;5.00;;
13731;SDS011;6937;56.096;12.664;2022-10-30T01:04:36;11.13;;;5.70;;
13731;SDS011;6937;56.096;12.664;2022-10-30T01:07:05;8.88;;;6.13;;
13731;SDS011;6937;56.096;12.664;2022-10-30T01:09:35;6.35;;;4.57;;
13731;SDS011;6937;56.096;12.664;2022-10-30T01:12:02;7.40;;;4.88;;
13731;SDS011;6937;56.096;12.664;2022-10-30T01:14:28;7.90;;;4.55;;
13731;SDS011;6937;56.096;12.664;2022-10-30T01:17:06;5.30;;;4.40;;
13731;SDS011;6937;56.096;12.664;2022-10-30T01:25:07;8.10;;;4.80;;
13731;SDS011;6937;56.096;12.664;2022-10-30T01:27:38;6.90;;;4.70;;
13731;SDS011;6937;56.096;12.664;2022-10-30T01:30:19;9.77;;;5.50;;
13731;SDS011;6937;56.096;12.664;2022-10-30T01:35:55;8.07;;;4.82;;
13731;SDS011;6937;56.096;12.664;2022-10-30T01:38:23;9.48;;;5.75;;
13731;SDS011;6937;56.096;12.664;2022-10-30T01:40:53;8.23;;;4.95;;
13731;SDS011;6937;56.096;12.664;2022-10-30T01:43:18;8.77;;;5.30;;
13731;SDS011;6937;56.096;12.664;2022-10-30T02:01:58;7.30;;;4.78;;
13731;SDS011;6937;56.096;12.664;2022-10-30T02:04:24;11.68;;;6.22;;
13731;SDS011;6937;56.096;12.664;2022-10-30T02:06:49;9.88;;;5.45;;
13731;SDS011;6937;56.096;12.664;2022-10-30T02:09:15;8.40;;;4.75;;
13731;SDS011;6937;56.096;12.664;2022-10-30T02:11:41;7.50;;;5.13;;
13731;SDS011;6937;56.096;12.664;2022-10-30T02:14:08;7.63;;;4.47;;
13731;SDS011;6937;56.096;12.664;2022-10-30T02:16:36;8.73;;;4.60;;
13731;SDS011;6937;56.096;12.664;2022-10-30T02:19:06;7.85;;;4.93;;
13731;SDS011;6937;56.096;12.664;2022-10-30T02:21:31;7.85;;;4.45;;
13731;SDS011;6937;56.096;12.664;2022-10-30T02:23:56;10.15;;;5.28;;
13731;SDS011;6937;56.096;12.664;2022-10-30T02:26:22;6.65;;;4.40;;
13731;SDS011;6937;56.096;12.664;2022-10-30T02:28:47;7.18;;;4.68;;
13731;SDS011;6937;56.096;12.664;2022-10-30T02:31:13;6.25;;;3.78;;
13731;SDS011;6937;56.096;12.664;2022-10-30T02:33:39;8.50;;;4.80;;
13731;SDS011;6937;56.096;12.664;2022-10-30T02:36:08;6.22;;;4.30;;
13731;SDS011;6937;56.096;12.664;2022-10-30T02:38:33;5.70;;;3.90;;
13731;SDS011;6937;56.096;12.664;2022-10-30T02:40:59;7.40;;;4.25;;
13731;SDS011;6937;56.096;12.664;2022-10-30T02:43:24;8.10;;;4.50;;
13731;SDS011;6937;56.096;12.664;2022-10-30T02:45:50;7.47;;;4.10;;
13731;SDS011;6937;56.096;12.664;2022-10-30T02:48:15;5.88;;;4.10;;
13731;SDS011;6937;56.096;12.664;2022-10-30T02:50:41;7.53;;;4.35;;
13731;SDS011;6937;56.096;12.664;2022-10-30T02:53:07;7.53;;;4.60;;
13731;SDS011;6937;56.096;12.664;2022-10-30T02:55:32;7.20;;;4.65;;
13731;SDS011;6937;56.096;12.664;2022-10-30T02:57:57;6.90;;;3.72;;
13731;SDS011;6937;56.096;12.664;2022-10-30T03:00:23;6.55;;;4.28;;
13731;SDS011;6937;56.096;12.664;2022-10-30T03:02:52;7.57;;;4.00;;
13731;SDS011;6937;56.096;12.664;2022-10-30T03:05:18;5.13;;;3.38;;
13731;SDS011;6937;56.096;12.664;2022-10-30T03:07:44;5.35;;;3.03;;
13731;SDS011;6937;56.096;12.664;2022-10-30T03:10:12;5.38;;;3.22;;
13731;SDS011;6937;56.096;12.664;2022-10-30T03:12:37;7.53;;;3.25;;
13731;SDS011;6937;56.096;12.664;2022-10-30T03:15:03;3.60;;;2.60;;
13731;SDS011;6937;56.096;12.664;2022-10-30T03:17:29;3.60;;;2.63;;
13731;SDS011;6937;56.096;12.664;2022-10-30T03:19:54;4.88;;;3.22;;
13731;SDS011;6937;56.096;12.664;2022-10-30T03:22:19;5.95;;;3.50;;
13731;SDS011;6937;56.096;12.664;2022-10-30T03:24:44;5.30;;;3.20;;
13731;SDS011;6937;56.096;12.664;2022-10-30T03:27:10;6.63;;;3.50;;
13731;SDS011;6937;56.096;12.664;2022-10-30T03:29:35;5.32;;;3.70;;
13731;SDS011;6937;56.096;12.664;2022-10-30T03:32:00;7.70;;;4.15;;
13731;SDS011;6937;56.096;12.664;2022-10-30T03:34:26;5.07;;;3.78;;
13731;SDS011;6937;56.096;12.664;2022-10-30T03:36:51;5.22;;;3.45;;
13731;SDS011;6937;56.096;12.664;2022-10-30T03:39:16;6.25;;;3.70;;
13731;SDS011;6937;56.096;12.664;2022-10-30T03:41:42;7.47;;;4.05;;
13731;SDS011;6937;56.096;12.664;2022-10-30T03:44:07;8.93;;;4.40;;
13731;SDS011;6937;56.096;12.664;2022-10-30T03:46:33;7.72;;;4.18;;
13731;SDS011;6937;56.096;12.664;2022-10-30T03:48:59;7.53;;;4.38;;
13731;SDS011;6937;56.096;12.664;2022-10-30T03:51:25;6.15;;;4.18;;
13731;SDS011;6937;56.096;12.664;2022-10-30T03:53:50;8.13;;;4.25;;
13731;SDS011;6937;56.096;12.664;2022-10-30T03:56:16;7.28;;;5.05;;
13731;SDS011;6937;56.096;12.664;2022-10-30T03:58:41;6.88;;;4.70;;
13731;SDS011;6937;56.096;12.664;2022-10-30T04:01:07;7.35;;;4.90;;
13731;SDS011;6937;56.096;12.664;2022-10-30T04:03:33;7.47;;;4.82;;
13731;SDS011;6937;56.096;12.664;2022-10-30T04:05:59;9.43;;;5.03;;
13731;SDS011;6937;56.096;12.664;2022-10-30T04:08:24;7.47;;;4.82;;
13731;SDS011;6937;56.096;12.664;2022-10-30T04:10:50;8.23;;;5.20;;
13731;SDS011;6937;56.096;12.664;2022-10-30T04:13:16;5.70;;;4.75;;
13731;SDS011;6937;56.096;12.664;2022-10-30T04:15:41;7.22;;;5.03;;
13731;SDS011;6937;56.096;12.664;2022-10-30T04:18:10;6.40;;;4.03;;
13731;SDS011;6937;56.096;12.664;2022-10-30T04:20:36;5.65;;;3.80;;
13731;SDS011;6937;56.096;12.664;2022-10-30T04:23:03;5.78;;;3.55;;
13731;SDS011;6937;56.096;12.664;2022-10-30T04:25:30;7.13;;;4.70;;
13731;SDS011;6937;56.096;12.664;2022-10-30T04:27:57;7.38;;;4.60;;
13731;SDS011;6937;56.096;12.664;2022-10-30T04:30:23;7.43;;;4.40;;
13731;SDS011;6937;56.096;12.664;2022-10-30T04:32:51;4.70;;;3.88;;
13731;SDS011;6937;56.096;12.664;2022-10-30T04:35:19;7.72;;;3.55;;
13731;SDS011;6937;56.096;12.664;2022-10-30T04:37:56;5.57;;;3.83;;
13731;SDS011;6937;56.096;12.664;2022-10-30T04:40:23;5.05;;;3.03;;
13731;SDS011;6937;56.096;12.664;2022-10-30T04:42:50;4.78;;;3.38;;
13731;SDS011;6937;56.096;12.664;2022-10-30T04:45:16;4.05;;;2.97;;
13731;SDS011;6937;56.096;12.664;2022-10-30T04:47:41;6.68;;;4.35;;
13731;SDS011;6937;56.096;12.664;2022-10-30T04:50:07;7.53;;;4.60;;
13731;SDS011;6937;56.096;12.664;2022-10-30T04:52:34;6.40;;;4.60;;
13731;SDS011;6937;56.096;12.664;2022-10-30T04:54:59;8.60;;;5.47;;
13731;SDS011;6937;56.096;12.664;2022-10-30T04:57:24;8.77;;;5.00;;
13731;SDS011;6937;56.096;12.664;2022-10-30T04:59:50;7.40;;;4.75;;
13731;SDS011;6937;56.096;12.664;2022-10-30T05:02:15;6.88;;;4.90;;
13731;SDS011;6937;56.096;12.664;2022-10-30T05:04:43;7.22;;;4.85;;
13731;SDS011;6937;56.096;12.664;2022-10-30T05:07:08;6.40;;;4.80;;
13731;SDS011;6937;56.096;12.664;2022-10-30T05:09:34;5.57;;;4.60;;
13731;SDS011;6937;56.096;12.664;2022-10-30T05:11:59;7.15;;;4.50;;
13731;SDS011;6937;56.096;12.664;2022-10-30T05:14:27;6.85;;;4.88;;
13731;SDS011;6937;56.096;12.664;2022-10-30T05:16:55;8.82;;;4.95;;
13731;SDS011;6937;56.096;12.664;2022-10-30T05:19:21;7.50;;;5.00;;
13731;SDS011;6937;56.096;12.664;2022-10-30T05:21:46;9.75;;;5.65;;
13731;SDS011;6937;56.096;12.664;2022-10-30T05:24:12;7.40;;;5.22;;
13731;SDS011;6937;56.096;12.664;2022-10-30T05:26:37;8.60;;;6.15;;
13731;SDS011;6937;56.096;12.664;2022-10-30T05:29:02;12.65;;;5.40;;
13731;SDS011;6937;56.096;12.664;2022-10-30T05:31:28;10.15;;;6.07;;
13731;SDS011;6937;56.096;12.664;2022-10-30T05:33:53;8.75;;;6.20;;
13731;SDS011;6937;56.096;12.664;2022-10-30T05:36:18;7.72;;;5.35;;
13731;SDS011;6937;56.096;12.664;2022-10-30T05:38:44;8.32;;;5.03;;
13731;SDS011;6937;56.096;12.664;2022-10-30T05:41:10;9.27;;;6.30;;
13731;SDS011;6937;56.096;12.664;2022-10-30T05:43:36;10.25;;;6.25;;
13731;SDS011;6937;56.096;12.664;2022-10-30T05:46:01;8.75;;;5.80;;
13731;SDS011;6937;56.096;12.664;2022-10-30T05:48:28;7.32;;;4.88;;
13731;SDS011;6937;56.096;12.664;2022-10-30T05:50:54;5.65;;;4.80;;
13731;SDS011;6937;56.096;12.664;2022-10-30T05:53:20;9.10;;;5.63;;
13731;SDS011;6937;56.096;12.664;2022-10-30T05:55:46;6.00;;;4.63;;
13731;SDS011;6937;56.096;12.664;2022-10-30T05:58:12;8.20;;;4.65;;
13731;SDS011;6937;56.096;12.664;2022-10-30T06:00:37;7.32;;;4.35;;
13731;SDS011;6937;56.096;12.664;2022-10-30T06:03:05;6.18;;;4.28;;
13731;SDS011;6937;56.096;12.664;2022-10-30T06:05:34;5.18;;;3.65;;
13731;SDS011;6937;56.096;12.664;2022-10-30T06:08:00;6.30;;;4.82;;
13731;SDS011;6937;56.096;12.664;2022-10-30T06:10:26;6.80;;;4.68;;
13731;SDS011;6937;56.096;12.664;2022-10-30T06:12:56;5.10;;;4.45;;
13731;SDS011;6937;56.096;12.664;2022-10-30T06:15:23;7.72;;;5.28;;
13731;SDS011;6937;56.096;12.664;2022-10-30T06:17:48;6.35;;;5.72;;
13731;SDS011;6937;56.096;12.664;2022-10-30T06:20:14;7.43;;;5.10;;
13731;SDS011;6937;56.096;12.664;2022-10-30T06:22:41;7.65;;;5.28;;
13731;SDS011;6937;56.096;12.664;2022-10-30T06:25:06;6.35;;;4.80;;
13731;SDS011;6937;56.096;12.664;2022-10-30T06:27:35;5.13;;;4.07;;
13731;SDS011;6937;56.096;12.664;2022-10-30T06:30:00;6.60;;;5.00;;
13731;SDS011;6937;56.096;12.664;2022-10-30T06:32:25;5.20;;;4.45;;
13731;SDS011;6937;56.096;12.664;2022-10-30T06:34:51;6.60;;;4.13;;
13731;SDS011;6937;56.096;12.664;2022-10-30T06:37:16;5.75;;;4.38;;
13731;SDS011;6937;56.096;12.664;2022-10-30T06:39:42;6.28;;;4.25;;
13731;SDS011;6937;56.096;12.664;2022-10-30T06:42:07;6.20;;;4.82;;
13731;SDS011;6937;56.096;12.664;2022-10-30T06:44:33;4.82;;;3.97;;
13731;SDS011;6937;56.096;12.664;2022-10-30T06:46:58;5.82;;;4.32;;
13731;SDS011;6937;56.096;12.664;2022-10-30T06:49:23;4.13;;;3.70;;
13731;SDS011;6937;56.096;12.664;2022-10-30T06:51:49;5.57;;;3.50;;
13731;SDS011;6937;56.096;12.664;2022-10-30T06:54:15;6.13;;;4.35;;
13731;SDS011;6937;56.096;12.664;2022-10-30T06:56:40;4.20;;;3.42;;
13731;SDS011;6937;56.096;12.664;2022-10-30T06:59:06;4.78;;;4.03;;
13731;SDS011;6937;56.096;12.664;2022-10-30T07:01:31;5.18;;;4.32;;
13731;SDS011;6937;56.096;12.664;2022-10-30T07:03:57;4.32;;;3.58;;
13731;SDS011;6937;56.096;12.664;2022-10-30T07:06:22;4.90;;;3.45;;
13731;SDS011;6937;56.096;12.664;2022-10-30T07:08:47;5.22;;;3.90;;
13731;SDS011;6937;56.096;12.664;2022-10-30T07:11:13;4.47;;;3.78;;
13731;SDS011;6937;56.096;12.664;2022-10-30T07:13:38;4.30;;;3.90;;
13731;SDS011;6937;56.096;12.664;2022-10-30T07:16:04;7.00;;;4.18;;
13731;SDS011;6937;56.096;12.664;2022-10-30T07:18:29;7.35;;;3.70;;
13731;SDS011;6937;56.096;12.664;2022-10-30T07:20:55;6.10;;;4.35;;
13731;SDS011;6937;56.096;12.664;2022-10-30T07:23:20;6.60;;;4.80;;
13731;SDS011;6937;56.096;12.664;2022-10-30T07:25:46;6.93;;;4.82;;
13731;SDS011;6937;56.096;12.664;2022-10-30T07:28:11;6.53;;;5.13;;
13731;SDS011;6937;56.096;12.664;2022-10-30T07:30:36;7.63;;;5.35;;
13731;SDS011;6937;56.096;12.664;2022-10-30T07:33:03;7.70;;;5.45;;
13731;SDS011;6937;56.096;12.664;2022-10-30T07:35:30;7.40;;;5.20;;
13731;SDS011;6937;56.096;12.664;2022-10-30T07:38:07;7.90;;;6.20;;
13731;SDS011;6937;56.096;12.664;2022-10-30T07:40:35;8.07;;;6.10;;
13731;SDS011;6937;56.096;12.664;2022-10-30T07:43:01;14.25;;;6.47;;
13731;SDS011;6937;56.096;12.664;2022-10-30T07:45:27;8.40;;;6.30;;
13731;SDS011;6937;56.096;12.664;2022-10-30T07:47:53;7.32;;;5.90;;
13731;SDS011;6937;56.096;12.664;2022-10-30T07:50:19;10.02;;;6.82;;
13731;SDS011;6937;56.096;12.664;2022-10-30T07:52:46;9.35;;;6.53;;
13731;SDS011;6937;56.096;12.664;2022-10-30T07:55:11;7.57;;;6.03;;
13731;SDS011;6937;56.096;12.664;2022-10-30T07:57:38;10.88;;;6.78;;
13731;SDS011;6937;56.096;12.664;2022-10-30T08:00:05;8.40;;;5.85;;
13731;SDS011;6937;56.096;12.664;2022-10-30T08:02:33;8.85;;;6.28;;
13731;SDS011;6937;56.096;12.664;2022-10-30T08:04:58;9.60;;;5.93;;
13731;SDS011;6937;56.096;12.664;2022-10-30T08:07:28;6.13;;;5.03;;
13731;SDS011;6937;56.096;12.664;2022-10-30T08:09:56;6.72;;;4.68;;
13731;SDS011;6937;56.096;12.664;2022-10-30T08:12:22;6.88;;;4.95;;
13731;SDS011;6937;56.096;12.664;2022-10-30T08:14:47;4.47;;;3.85;;
13731;SDS011;6937;56.096;12.664;2022-10-30T08:17:13;4.75;;;3.90;;
13731;SDS011;6937;56.096;12.664;2022-10-30T08:19:38;5.43;;;3.95;;
13731;SDS011;6937;56.096;12.664;2022-10-30T08:22:04;4.65;;;3.78;;
13731;SDS011;6937;56.096;12.664;2022-10-30T08:24:29;4.90;;;3.38;;
13731;SDS011;6937;56.096;12.664;2022-10-30T08:26:55;5.55;;;3.83;;
13731;SDS011;6937;56.096;12.664;2022-10-30T08:29:20;6.95;;;4.07;;
13731;SDS011;6937;56.096;12.664;2022-10-30T08:31:49;4.85;;;3.50;;
13731;SDS011;6937;56.096;12.664;2022-10-30T08:34:15;4.15;;;3.15;;
13731;SDS011;6937;56.096;12.664;2022-10-30T08:36:41;4.72;;;3.70;;
13731;SDS011;6937;56.096;12.664;2022-10-30T08:39:07;4.38;;;3.22;;
13731;SDS011;6937;56.096;12.664;2022-10-30T08:41:33;4.53;;;3.20;;
13731;SDS011;6937;56.096;12.664;2022-10-30T08:43:58;4.68;;;3.17;;
13731;SDS011;6937;56.096;12.664;2022-10-30T08:46:24;6.05;;;3.20;;
13731;SDS011;6937;56.096;12.664;2022-10-30T08:48:49;4.40;;;2.58;;
13731;SDS011;6937;56.096;12.664;2022-10-30T08:51:15;3.58;;;2.67;;
13731;SDS011;6937;56.096;12.664;2022-10-30T08:53:40;2.67;;;2.20;;
13731;SDS011;6937;56.096;12.664;2022-10-30T08:56:05;3.05;;;2.15;;
13731;SDS011;6937;56.096;12.664;2022-10-30T08:58:31;2.83;;;2.30;;
13731;SDS011;6937;56.096;12.664;2022-10-30T09:00:56;4.80;;;2.90;;
13731;SDS011;6937;56.096;12.664;2022-10-30T09:03:21;4.57;;;2.53;;
13731;SDS011;6937;56.096;12.664;2022-10-30T09:05:47;4.25;;;2.40;;
13731;SDS011;6937;56.096;12.664;2022-10-30T09:08:13;2.97;;;2.17;;
13731;SDS011;6937;56.096;12.664;2022-10-30T09:10:38;2.70;;;1.88;;
13731;SDS011;6937;56.096;12.664;2022-10-30T09:13:04;2.80;;;1.85;;
13731;SDS011;6937;56.096;12.664;2022-10-30T09:15:29;2.97;;;1.90;;
13731;SDS011;6937;56.096;12.664;2022-10-30T09:17:58;3.95;;;1.88;;
13731;SDS011;6937;56.096;12.664;2022-10-30T09:20:25;3.03;;;1.80;;
13731;SDS011;6937;56.096;12.664;2022-10-30T09:22:51;3.47;;;1.40;;
13731;SDS011;6937;56.096;12.664;2022-10-30T09:25:17;3.08;;;1.50;;
13731;SDS011;6937;56.096;12.664;2022-10-30T09:27:43;1.98;;;1.40;;
13731;SDS011;6937;56.096;12.664;2022-10-30T09:30:08;2.80;;;1.42;;
13731;SDS011;6937;56.096;12.664;2022-10-30T09:32:34;1.77;;;1.30;;
13731;SDS011;6937;56.096;12.664;2022-10-30T09:34:59;2.25;;;1.23;;
13731;SDS011;6937;56.096;12.664;2022-10-30T09:37:25;1.90;;;1.25;;
13731;SDS011;6937;56.096;12.664;2022-10-30T09:39:51;2.60;;;1.20;;
13731;SDS011;6937;56.096;12.664;2022-10-30T09:42:26;1.40;;;1.00;;
13731;SDS011;6937;56.096;12.664;2022-10-30T09:47:56;2.60;;;1.00;;
13731;SDS011;6937;56.096;12.664;2022-10-30T09:53:38;2.80;;;0.80;;
13731;SDS011;6937;56.096;12.664;2022-10-30T09:56:33;3.22;;;1.10;;
13731;SDS011;6937;56.096;12.664;2022-10-30T10:01:46;1.83;;;0.90;;
13731;SDS011;6937;56.096;12.664;2022-10-30T10:06:59;1.42;;;0.82;;
13731;SDS011;6937;56.096;12.664;2022-10-30T10:09:28;3.33;;;1.20;;
13731;SDS011;6937;56.096;12.664;2022-10-30T10:12:01;1.80;;;0.90;;
13731;SDS011;6937;56.096;12.664;2022-10-30T10:14:37;1.83;;;0.90;;
13731;SDS011;6937;56.096;12.664;2022-10-30T10:17:10;1.67;;;1.17;;
13731;SDS011;6937;56.096;12.664;2022-10-30T10:19:37;1.90;;;0.98;;
13731;SDS011;6937;56.096;12.664;2022-10-30T10:22:20;2.63;;;1.23;;
13731;SDS011;6937;56.096;12.664;2022-10-30T10:24:48;2.35;;;1.13;;
13731;SDS011;6937;56.096;12.664;2022-10-30T10:30:09;3.25;;;1.35;;
13731;SDS011;6937;56.096;12.664;2022-10-30T10:38:18;2.80;;;1.40;;
13731;SDS011;6937;56.096;12.664;2022-10-30T10:52:00;3.00;;;1.27;;
13731;SDS011;6937;56.096;12.664;2022-10-30T10:54:31;3.50;;;1.30;;
13731;SDS011;6937;56.096;12.664;2022-10-30T10:57:03;3.15;;;1.35;;
13731;SDS011;6937;56.096;12.664;2022-10-30T10:59:40;3.65;;;1.65;;
13731;SDS011;6937;56.096;12.664;2022-10-30T11:04:38;6.22;;;1.83;;
13731;SDS011;6937;56.096;12.664;2022-10-30T11:09:50;4.10;;;1.90;;
13731;SDS011;6937;56.096;12.664;2022-10-30T11:12:22;4.28;;;2.15;;
13731;SDS011;6937;56.096;12.664;2022-10-30T11:14:52;4.15;;;2.15;;
13731;SDS011;6937;56.096;12.664;2022-10-30T11:17:26;6.18;;;2.40;;
13731;SDS011;6937;56.096;12.664;2022-10-30T11:20:15;4.28;;;2.08;;
13731;SDS011;6937;56.096;12.664;2022-10-30T11:22:45;4.90;;;2.40;;
13731;SDS011;6937;56.096;12.664;2022-10-30T11:25:18;3.78;;;2.53;;
13731;SDS011;6937;56.096;12.664;2022-10-30T11:27:47;5.70;;;2.45;;
13731;SDS011;6937;56.096;12.664;2022-10-30T11:30:19;3.78;;;2.13;;
13731;SDS011;6937;56.096;12.664;2022-10-30T11:32:46;7.30;;;3.03;;
13731;SDS011;6937;56.096;12.664;2022-10-30T11:35:12;4.15;;;2.72;;
13731;SDS011;6937;56.096;12.664;2022-10-30T11:37:40;6.10;;;3.47;;
13731;SDS011;6937;56.096;12.664;2022-10-30T11:42:35;5.93;;;3.00;;
13731;SDS011;6937;56.096;12.664;2022-10-30T11:45:04;7.15;;;3.03;;
13731;SDS011;6937;56.096;12.664;2022-10-30T11:47:37;5.15;;;2.90;;
13731;SDS011;6937;56.096;12.664;2022-10-30T11:50:03;4.70;;;3.00;;
13731;SDS011;6937;56.096;12.664;2022-10-30T11:52:36;8.35;;;3.78;;
13731;SDS011;6937;56.096;12.664;2022-10-30T11:57:57;7.82;;;2.80;;
13731;SDS011;6937;56.096;12.664;2022-10-30T12:00:24;4.53;;;2.97;;
13731;SDS011;6937;56.096;12.664;2022-10-30T12:02:52;6.47;;;2.28;;
13731;SDS011;6937;56.096;12.664;2022-10-30T12:07:52;4.20;;;1.95;;
13731;SDS011;6937;56.096;12.664;2022-10-30T12:10:25;3.38;;;2.00;;
13731;SDS011;6937;56.096;12.664;2022-10-30T12:12:52;3.47;;;1.90;;
13731;SDS011;6937;56.096;12.664;2022-10-30T12:15:19;3.60;;;2.03;;
13731;SDS011;6937;56.096;12.664;2022-10-30T12:17:49;2.97;;;2.00;;
13731;SDS011;6937;56.096;12.664;2022-10-30T12:20:16;2.40;;;1.90;;
13731;SDS011;6937;56.096;12.664;2022-10-30T12:22:42;3.50;;;2.40;;
13731;SDS011;6937;56.096;12.664;2022-10-30T12:25:20;4.88;;;2.28;;
13731;SDS011;6937;56.096;12.664;2022-10-30T12:27:48;5.15;;;2.50;;
13731;SDS011;6937;56.096;12.664;2022-10-30T12:30:19;4.47;;;2.30;;
13731;SDS011;6937;56.096;12.664;2022-10-30T12:35:21;4.95;;;2.92;;
13731;SDS011;6937;56.096;12.664;2022-10-30T12:37:55;5.78;;;3.72;;
13731;SDS011;6937;56.096;12.664;2022-10-30T12:40:26;6.90;;;3.55;;
13731;SDS011;6937;56.096;12.664;2022-10-30T12:45:40;7.30;;;3.58;;
13731;SDS011;6937;56.096;12.664;2022-10-30T12:53:27;3.95;;;3.08;;
13731;SDS011;6937;56.096;12.664;2022-10-30T12:56:04;5.70;;;2.95;;
13731;SDS011;6937;56.096;12.664;2022-10-30T12:58:57;7.55;;;3.63;;
13731;SDS011;6937;56.096;12.664;2022-10-30T13:01:39;4.63;;;3.20;;
13731;SDS011;6937;56.096;12.664;2022-10-30T13:09:41;6.75;;;3.85;;
13731;SDS011;6937;56.096;12.664;2022-10-30T13:12:17;6.90;;;4.07;;
13731;SDS011;6937;56.096;12.664;2022-10-30T13:14:48;5.97;;;3.70;;
13731;SDS011;6937;56.096;12.664;2022-10-30T13:17:19;4.40;;;3.13;;
13731;SDS011;6937;56.096;12.664;2022-10-30T13:19:45;6.72;;;3.75;;
13731;SDS011;6937;56.096;12.664;2022-10-30T13:22:13;5.40;;;3.20;;
13731;SDS011;6937;56.096;12.664;2022-10-30T13:25:02;6.03;;;3.58;;
13731;SDS011;6937;56.096;12.664;2022-10-30T13:30:47;5.60;;;3.00;;
13731;SDS011;6937;56.096;12.664;2022-10-30T13:33:27;4.90;;;3.22;;
13731;SDS011;6937;56.096;12.664;2022-10-30T13:36:03;5.47;;;3.10;;
13731;SDS011;6937;56.096;12.664;2022-10-30T13:41:45;3.53;;;3.00;;
13731;SDS011;6937;56.096;12.664;2022-10-30T13:47:23;6.45;;;2.83;;
13731;SDS011;6937;56.096;12.664;2022-10-30T13:52:29;4.63;;;2.60;;
13731;SDS011;6937;56.096;12.664;2022-10-30T13:55:01;4.63;;;2.60;;
13731;SDS011;6937;56.096;12.664;2022-10-30T13:57:40;3.95;;;2.47;;
13731;SDS011;6937;56.096;12.664;2022-10-30T14:00:19;6.70;;;2.70;;
13731;SDS011;6937;56.096;12.664;2022-10-30T14:11:40;6.90;;;3.40;;
13731;SDS011;6937;56.096;12.664;2022-10-30T14:16:40;7.10;;;3.90;;
13731;SDS011;6937;56.096;12.664;2022-10-30T14:19:16;8.77;;;4.00;;
13731;SDS011;6937;56.096;12.664;2022-10-30T14:24:21;6.60;;;4.55;;
13731;SDS011;6937;56.096;12.664;2022-10-30T14:27:08;8.32;;;5.30;;
13731;SDS011;6937;56.096;12.664;2022-10-30T14:29:47;9.00;;;5.18;;
13731;SDS011;6937;56.096;12.664;2022-10-30T14:37:14;11.35;;;6.43;;
13731;SDS011;6937;56.096;12.664;2022-10-30T14:39:46;11.30;;;6.78;;
13731;SDS011;6937;56.096;12.664;2022-10-30T14:50:16;9.90;;;6.95;;
13731;SDS011;6937;56.096;12.664;2022-10-30T14:58:26;13.43;;;9.95;;
13731;SDS011;6937;56.096;12.664;2022-10-30T15:03:45;16.08;;;11.75;;
13731;SDS011;6937;56.096;12.664;2022-10-30T15:06:28;17.83;;;11.57;;
13731;SDS011;6937;56.096;12.664;2022-10-30T15:09:24;26.50;;;14.65;;
13731;SDS011;6937;56.096;12.664;2022-10-30T15:14:43;23.77;;;14.73;;
13731;SDS011;6937;56.096;12.664;2022-10-30T15:17:31;23.23;;;14.82;;
13731;SDS011;6937;56.096;12.664;2022-10-30T15:20:01;24.95;;;16.15;;
13731;SDS011;6937;56.096;12.664;2022-10-30T15:22:30;25.42;;;15.57;;
13731;SDS011;6937;56.096;12.664;2022-10-30T15:24:57;28.85;;;17.20;;
13731;SDS011;6937;56.096;12.664;2022-10-30T15:27:24;27.15;;;17.05;;
13731;SDS011;6937;56.096;12.664;2022-10-30T15:29:53;29.88;;;18.17;;
13731;SDS011;6937;56.096;12.664;2022-10-30T15:32:21;31.50;;;20.00;;
13731;SDS011;6937;56.096;12.664;2022-10-30T15:34:52;33.35;;;20.08;;
13731;SDS011;6937;56.096;12.664;2022-10-30T15:37:20;39.42;;;22.17;;
13731;SDS011;6937;56.096;12.664;2022-10-30T15:39:46;36.97;;;21.90;;
13731;SDS011;6937;56.096;12.664;2022-10-30T15:42:11;40.55;;;23.65;;
13731;SDS011;6937;56.096;12.664;2022-10-30T15:44:41;43.53;;;24.85;;
13731;SDS011;6937;56.096;12.664;2022-10-30T15:47:12;39.60;;;24.60;;
13731;SDS011;6937;56.096;12.664;2022-10-30T15:49:41;43.67;;;25.13;;
13731;SDS011;6937;56.096;12.664;2022-10-30T15:52:14;45.00;;;25.35;;
13731;SDS011;6937;56.096;12.664;2022-10-30T15:54:43;46.63;;;27.45;;
13731;SDS011;6937;56.096;12.664;2022-10-30T15:57:15;49.55;;;28.98;;
13731;SDS011;6937;56.096;12.664;2022-10-30T15:59:48;50.22;;;30.40;;
13731;SDS011;6937;56.096;12.664;2022-10-30T16:02:21;53.60;;;30.38;;
13731;SDS011;6937;56.096;12.664;2022-10-30T16:04:48;48.83;;;29.67;;
13731;SDS011;6937;56.096;12.664;2022-10-30T16:07:20;57.53;;;31.63;;
13731;SDS011;6937;56.096;12.664;2022-10-30T16:09:55;55.40;;;31.95;;
13731;SDS011;6937;56.096;12.664;2022-10-30T16:12:23;59.85;;;33.08;;
13731;SDS011;6937;56.096;12.664;2022-10-30T16:14:50;60.25;;;34.20;;
13731;SDS011;6937;56.096;12.664;2022-10-30T16:17:16;56.17;;;33.90;;
13731;SDS011;6937;56.096;12.664;2022-10-30T16:19:47;54.65;;;31.90;;
13731;SDS011;6937;56.096;12.664;2022-10-30T16:22:20;58.28;;;34.42;;
13731;SDS011;6937;56.096;12.664;2022-10-30T16:24:49;52.53;;;31.05;;
13731;SDS011;6937;56.096;12.664;2022-10-30T16:27:16;63.60;;;34.85;;
13731;SDS011;6937;56.096;12.664;2022-10-30T16:29:44;60.33;;;34.40;;
13731;SDS011;6937;56.096;12.664;2022-10-30T16:32:14;65.53;;;35.97;;
13731;SDS011;6937;56.096;12.664;2022-10-30T16:34:41;61.95;;;36.33;;
13731;SDS011;6937;56.096;12.664;2022-10-30T16:37:18;68.20;;;39.13;;
13731;SDS011;6937;56.096;12.664;2022-10-30T16:40:05;68.00;;;38.28;;
13731;SDS011;6937;56.096;12.664;2022-10-30T16:42:34;73.35;;;40.05;;
13731;SDS011;6937;56.096;12.664;2022-10-30T16:45:14;76.45;;;39.95;;
13731;SDS011;6937;56.096;12.664;2022-10-30T16:48:29;75.55;;;41.33;;
13731;SDS011;6937;56.096;12.664;2022-10-30T16:50:44;77.75;;;41.88;;
13731;SDS011;6937;56.096;12.664;2022-10-30T16:53:16;71.85;;;41.25;;
13731;SDS011;6937;56.096;12.664;2022-10-30T16:55:44;70.80;;;41.88;;
13731;SDS011;6937;56.096;12.664;2022-10-30T16:58:11;68.10;;;41.85;;
13731;SDS011;6937;56.096;12.664;2022-10-30T17:00:37;75.90;;;44.72;;
13731;SDS011;6937;56.096;12.664;2022-10-30T17:03:09;78.28;;;43.80;;
13731;SDS011;6937;56.096;12.664;2022-10-30T17:05:35;92.55;;;49.53;;
13731;SDS011;6937;56.096;12.664;2022-10-30T17:08:05;73.90;;;46.10;;